sensor_id;sensor_type;location;lat;lon;timestamp;pressure;altitude;pressure_sealevel;temperature;humidity
48846;BME280;34665;51.886;5.436;2023-01-25T00:00:44;103600.69;;;11.73;57.33
48846;BME280;34665;51.886;5.436;2023-01-25T00:03:09;103607.91;;;11.83;56.72
48846;BME280;34665;51.886;5.436;2023-01-25T00:05:35;103596.16;;;11.74;56.39
48846;BME280;34665;51.886;5.436;2023-01-25T00:08:00;103593.59;;;11.62;56.56
48846;BME280;34665;51.886;5.436;2023-01-25T00:10:26;103593.88;;;11.59;56.91
48846;BME280;34665;51.886;5.436;2023-01-25T00:12:51;103592.28;;;11.26;57.86
48846;BME280;34665;51.886;5.436;2023-01-25T00:15:16;103591.84;;;11.21;57.46
48846;BME280;34665;51.886;5.436;2023-01-25T00:17:42;103586.41;;;11.11;57.88
48846;BME280;34665;51.886;5.436;2023-01-25T00:20:09;103581.75;;;10.70;59.32
48846;BME280;34665;51.886;5.436;2023-01-25T00:22:34;103583.84;;;11.30;57.53
48846;BME280;34665;51.886;5.436;2023-01-25T00:25:00;103583.44;;;11.35;57.47
48846;BME280;34665;51.886;5.436;2023-01-25T00:27:25;103587.53;;;11.39;57.80
48846;BME280;34665;51.886;5.436;2023-01-25T00:29:52;103579.47;;;11.60;57.27
48846;BME280;34665;51.886;5.436;2023-01-25T00:34:50;103574.06;;;11.51;56.90
48846;BME280;34665;51.886;5.436;2023-01-25T00:39:56;103573.31;;;11.80;56.83
48846;BME280;34665;51.886;5.436;2023-01-25T00:42:21;103571.22;;;11.83;56.30
48846;BME280;34665;51.886;5.436;2023-01-25T00:44:48;103572.69;;;11.97;56.25
48846;BME280;34665;51.886;5.436;2023-01-25T00:47:14;103567.78;;;12.02;56.04
48846;BME280;34665;51.886;5.436;2023-01-25T00:49:40;103561.56;;;12.02;56.18
48846;BME280;34665;51.886;5.436;2023-01-25T00:52:07;103558.63;;;12.05;56.17
48846;BME280;34665;51.886;5.436;2023-01-25T00:54:32;103558.16;;;12.00;56.48
48846;BME280;34665;51.886;5.436;2023-01-25T00:56:58;103561.50;;;11.20;57.42
48846;BME280;34665;51.886;5.436;2023-01-25T00:59:24;103560.50;;;11.42;57.33
48846;BME280;34665;51.886;5.436;2023-01-25T01:01:50;103564.13;;;11.31;57.63
48846;BME280;34665;51.886;5.436;2023-01-25T01:04:18;103557.25;;;11.80;56.76
48846;BME280;34665;51.886;5.436;2023-01-25T01:06:44;103560.03;;;12.09;56.15
48846;BME280;34665;51.886;5.436;2023-01-25T01:09:16;103557.53;;;11.86;56.05
48846;BME280;34665;51.886;5.436;2023-01-25T01:11:42;103549.00;;;12.02;56.33
48846;BME280;34665;51.886;5.436;2023-01-25T01:14:08;103555.69;;;11.87;56.47
48846;BME280;34665;51.886;5.436;2023-01-25T01:16:34;103555.91;;;11.64;56.55
48846;BME280;34665;51.886;5.436;2023-01-25T01:19:00;103555.00;;;10.92;58.14
48846;BME280;34665;51.886;5.436;2023-01-25T01:21:26;103557.41;;;11.16;57.45
48846;BME280;34665;51.886;5.436;2023-01-25T01:23:53;103560.63;;;11.41;57.13
48846;BME280;34665;51.886;5.436;2023-01-25T01:26:19;103550.94;;;11.50;56.64
48846;BME280;34665;51.886;5.436;2023-01-25T01:28:45;103558.50;;;11.13;57.25
48846;BME280;34665;51.886;5.436;2023-01-25T01:31:16;103560.03;;;11.06;57.30
48846;BME280;34665;51.886;5.436;2023-01-25T01:33:56;103562.75;;;11.47;56.94
48846;BME280;34665;51.886;5.436;2023-01-25T01:36:25;103562.50;;;11.50;56.53
48846;BME280;34665;51.886;5.436;2023-01-25T01:38:52;103562.31;;;11.83;56.18
48846;BME280;34665;51.886;5.436;2023-01-25T01:41:18;103552.66;;;11.60;56.25
48846;BME280;34665;51.886;5.436;2023-01-25T01:43:45;103563.41;;;12.11;55.49
48846;BME280;34665;51.886;5.436;2023-01-25T01:46:24;103556.72;;;11.96;55.84
48846;BME280;34665;51.886;5.436;2023-01-25T01:49:18;103560.69;;;11.19;56.65
48846;BME280;34665;51.886;5.436;2023-01-25T01:51:51;103559.00;;;11.28;57.19
48846;BME280;34665;51.886;5.436;2023-01-25T01:54:36;103549.78;;;11.42;57.05
48846;BME280;34665;51.886;5.436;2023-01-25T01:57:19;103541.25;;;11.58;56.56
48846;BME280;34665;51.886;5.436;2023-01-25T02:02:18;103541.78;;;11.21;57.30
48846;BME280;34665;51.886;5.436;2023-01-25T02:04:46;103539.25;;;11.29;57.31
48846;BME280;34665;51.886;5.436;2023-01-25T02:07:21;103535.63;;;11.30;57.10
48846;BME280;34665;51.886;5.436;2023-01-25T02:09:49;103537.34;;;11.31;57.22
48846;BME280;34665;51.886;5.436;2023-01-25T02:12:16;103533.66;;;11.32;57.08
48846;BME280;34665;51.886;5.436;2023-01-25T02:14:48;103534.88;;;11.28;57.30
48846;BME280;34665;51.886;5.436;2023-01-25T02:17:27;103531.88;;;11.12;57.77
48846;BME280;34665;51.886;5.436;2023-01-25T02:20:02;103528.13;;;11.24;57.78
48846;BME280;34665;51.886;5.436;2023-01-25T02:25:33;103537.38;;;11.51;56.96
48846;BME280;34665;51.886;5.436;2023-01-25T02:28:24;103533.38;;;11.04;57.63
48846;BME280;34665;51.886;5.436;2023-01-25T02:30:52;103522.59;;;11.16;57.63
48846;BME280;34665;51.886;5.436;2023-01-25T02:33:18;103525.28;;;10.73;58.44
48846;BME280;34665;51.886;5.436;2023-01-25T02:35:55;103520.00;;;10.62;58.20
48846;BME280;34665;51.886;5.436;2023-01-25T02:38:21;103519.16;;;10.61;59.33
48846;BME280;34665;51.886;5.436;2023-01-25T02:40:56;103524.41;;;10.19;59.99
48846;BME280;34665;51.886;5.436;2023-01-25T02:43:27;103511.38;;;10.58;59.30
48846;BME280;34665;51.886;5.436;2023-01-25T02:46:00;103510.66;;;10.56;59.67
48846;BME280;34665;51.886;5.436;2023-01-25T02:48:28;103521.31;;;10.89;58.68
48846;BME280;34665;51.886;5.436;2023-01-25T02:50:53;103512.56;;;10.44;59.36
48846;BME280;34665;51.886;5.436;2023-01-25T02:53:19;103517.44;;;10.28;59.58
48846;BME280;34665;51.886;5.436;2023-01-25T02:55:45;103510.59;;;10.46;59.51
48846;BME280;34665;51.886;5.436;2023-01-25T02:58:10;103512.31;;;10.03;61.21
48846;BME280;34665;51.886;5.436;2023-01-25T03:00:36;103523.78;;;10.81;58.82
48846;BME280;34665;51.886;5.436;2023-01-25T03:03:02;103508.25;;;10.74;58.58
48846;BME280;34665;51.886;5.436;2023-01-25T03:05:27;103506.81;;;10.38;59.38
48846;BME280;34665;51.886;5.436;2023-01-25T03:07:53;103509.16;;;10.42;59.25
48846;BME280;34665;51.886;5.436;2023-01-25T03:10:18;103509.88;;;10.66;59.32
48846;BME280;34665;51.886;5.436;2023-01-25T03:12:44;103506.03;;;10.80;58.87
48846;BME280;34665;51.886;5.436;2023-01-25T03:15:09;103504.81;;;11.15;57.90
48846;BME280;34665;51.886;5.436;2023-01-25T03:17:35;103497.81;;;10.71;58.48
48846;BME280;34665;51.886;5.436;2023-01-25T03:20:01;103489.66;;;10.73;57.86
48846;BME280;34665;51.886;5.436;2023-01-25T03:22:28;103488.19;;;10.90;58.00
48846;BME280;34665;51.886;5.436;2023-01-25T03:24:55;103483.03;;;9.90;60.18
48846;BME280;34665;51.886;5.436;2023-01-25T03:27:22;103491.47;;;10.51;59.36
48846;BME280;34665;51.886;5.436;2023-01-25T03:29:52;103477.56;;;10.79;58.59
48846;BME280;34665;51.886;5.436;2023-01-25T03:32:21;103474.69;;;10.49;59.21
48846;BME280;34665;51.886;5.436;2023-01-25T03:34:47;103469.81;;;10.22;58.85
48846;BME280;34665;51.886;5.436;2023-01-25T03:37:14;103475.94;;;10.66;58.41
48846;BME280;34665;51.886;5.436;2023-01-25T03:39:41;103467.22;;;10.95;57.97
48846;BME280;34665;51.886;5.436;2023-01-25T03:42:09;103475.81;;;10.68;58.20
48846;BME280;34665;51.886;5.436;2023-01-25T03:44:34;103473.47;;;10.21;58.92
48846;BME280;34665;51.886;5.436;2023-01-25T03:47:01;103463.75;;;10.19;60.03
48846;BME280;34665;51.886;5.436;2023-01-25T03:49:28;103465.28;;;10.33;59.69
48846;BME280;34665;51.886;5.436;2023-01-25T03:51:54;103461.00;;;10.31;59.36
48846;BME280;34665;51.886;5.436;2023-01-25T03:54:30;103464.91;;;11.12;57.76
48846;BME280;34665;51.886;5.436;2023-01-25T03:56:56;103459.16;;;11.26;57.09
48846;BME280;34665;51.886;5.436;2023-01-25T03:59:24;103462.06;;;11.44;57.09
48846;BME280;34665;51.886;5.436;2023-01-25T04:01:50;103467.00;;;11.49;56.86
48846;BME280;34665;51.886;5.436;2023-01-25T04:04:15;103456.16;;;11.10;57.44
48846;BME280;34665;51.886;5.436;2023-01-25T04:06:43;103467.63;;;10.90;58.03
48846;BME280;34665;51.886;5.436;2023-01-25T04:09:08;103464.66;;;10.94;57.76
48846;BME280;34665;51.886;5.436;2023-01-25T04:11:40;103458.34;;;10.31;59.57
48846;BME280;34665;51.886;5.436;2023-01-25T04:14:06;103455.09;;;10.27;59.68
48846;BME280;34665;51.886;5.436;2023-01-25T04:16:39;103457.34;;;10.43;59.46
48846;BME280;34665;51.886;5.436;2023-01-25T04:19:17;103454.78;;;10.09;59.91
48846;BME280;34665;51.886;5.436;2023-01-25T04:21:44;103455.09;;;9.95;60.17
48846;BME280;34665;51.886;5.436;2023-01-25T04:24:10;103449.66;;;9.85;60.58
48846;BME280;34665;51.886;5.436;2023-01-25T04:26:38;103445.25;;;10.49;58.91
48846;BME280;34665;51.886;5.436;2023-01-25T04:29:04;103446.88;;;10.83;58.34
48846;BME280;34665;51.886;5.436;2023-01-25T04:31:31;103445.50;;;10.88;57.74
48846;BME280;34665;51.886;5.436;2023-01-25T04:33:57;103445.19;;;10.39;58.72
48846;BME280;34665;51.886;5.436;2023-01-25T04:36:22;103443.56;;;10.48;58.64
48846;BME280;34665;51.886;5.436;2023-01-25T04:38:48;103440.84;;;10.27;59.04
48846;BME280;34665;51.886;5.436;2023-01-25T04:41:13;103436.31;;;10.60;58.02
48846;BME280;34665;51.886;5.436;2023-01-25T04:43:40;103445.00;;;10.73;57.98
48846;BME280;34665;51.886;5.436;2023-01-25T04:46:08;103445.69;;;10.75;57.84
48846;BME280;34665;51.886;5.436;2023-01-25T04:48:34;103445.75;;;10.85;57.80
48846;BME280;34665;51.886;5.436;2023-01-25T04:51:03;103432.41;;;10.64;57.55
48846;BME280;34665;51.886;5.436;2023-01-25T04:53:30;103432.22;;;10.56;58.28
48846;BME280;34665;51.886;5.436;2023-01-25T04:55:59;103430.97;;;10.60;58.09
48846;BME280;34665;51.886;5.436;2023-01-25T04:58:26;103420.78;;;10.54;58.31
48846;BME280;34665;51.886;5.436;2023-01-25T05:00:52;103423.25;;;10.88;57.53
48846;BME280;34665;51.886;5.436;2023-01-25T05:03:18;103421.16;;;10.49;58.24
48846;BME280;34665;51.886;5.436;2023-01-25T05:05:47;103416.09;;;10.67;58.25
48846;BME280;34665;51.886;5.436;2023-01-25T05:08:18;103413.13;;;10.07;59.44
48846;BME280;34665;51.886;5.436;2023-01-25T05:10:44;103409.13;;;10.01;59.76
48846;BME280;34665;51.886;5.436;2023-01-25T05:13:25;103418.13;;;10.00;60.49
48846;BME280;34665;51.886;5.436;2023-01-25T05:16:02;103413.13;;;10.07;60.62
48846;BME280;34665;51.886;5.436;2023-01-25T05:18:28;103412.06;;;10.52;59.28
48846;BME280;34665;51.886;5.436;2023-01-25T05:20:54;103407.19;;;10.03;59.86
48846;BME280;34665;51.886;5.436;2023-01-25T05:23:22;103414.72;;;10.30;59.75
48846;BME280;34665;51.886;5.436;2023-01-25T05:25:48;103415.09;;;10.47;59.28
48846;BME280;34665;51.886;5.436;2023-01-25T05:28:35;103411.78;;;10.33;59.43
48846;BME280;34665;51.886;5.436;2023-01-25T05:31:26;103411.16;;;10.30;59.56
48846;BME280;34665;51.886;5.436;2023-01-25T05:33:52;103404.72;;;10.54;59.05
48846;BME280;34665;51.886;5.436;2023-01-25T05:36:19;103403.97;;;10.63;58.79
48846;BME280;34665;51.886;5.436;2023-01-25T05:38:45;103396.09;;;10.71;58.92
48846;BME280;34665;51.886;5.436;2023-01-25T05:41:11;103398.81;;;10.50;58.93
48846;BME280;34665;51.886;5.436;2023-01-25T05:43:37;103398.19;;;10.04;59.89
48846;BME280;34665;51.886;5.436;2023-01-25T05:46:04;103392.84;;;10.04;60.17
48846;BME280;34665;51.886;5.436;2023-01-25T05:48:30;103397.16;;;10.16;59.80
48846;BME280;34665;51.886;5.436;2023-01-25T05:50:57;103397.63;;;10.43;59.11
48846;BME280;34665;51.886;5.436;2023-01-25T05:53:26;103395.34;;;10.90;58.56
48846;BME280;34665;51.886;5.436;2023-01-25T05:55:52;103398.44;;;11.27;57.46
48846;BME280;34665;51.886;5.436;2023-01-25T05:58:18;103397.13;;;11.21;57.30
48846;BME280;34665;51.886;5.436;2023-01-25T06:00:44;103408.53;;;11.13;57.78
48846;BME280;34665;51.886;5.436;2023-01-25T06:03:16;103403.97;;;10.63;58.16
48846;BME280;34665;51.886;5.436;2023-01-25T06:05:42;103401.00;;;10.97;57.97
48846;BME280;34665;51.886;5.436;2023-01-25T06:08:08;103406.63;;;10.94;57.53
48846;BME280;34665;51.886;5.436;2023-01-25T06:10:43;103402.97;;;10.95;58.07
48846;BME280;34665;51.886;5.436;2023-01-25T06:13:08;103401.00;;;10.97;57.97
48846;BME280;34665;51.886;5.436;2023-01-25T06:15:35;103403.03;;;11.15;57.62
48846;BME280;34665;51.886;5.436;2023-01-25T06:18:19;103406.63;;;10.94;58.11
48846;BME280;34665;51.886;5.436;2023-01-25T06:21:06;103403.47;;;10.58;58.61
48846;BME280;34665;51.886;5.436;2023-01-25T06:23:35;103416.69;;;10.81;58.16
48846;BME280;34665;51.886;5.436;2023-01-25T06:26:05;103421.22;;;10.80;58.18
48846;BME280;34665;51.886;5.436;2023-01-25T06:28:32;103411.31;;;10.28;58.97
48846;BME280;34665;51.886;5.436;2023-01-25T06:31:03;103409.47;;;10.40;59.30
48846;BME280;34665;51.886;5.436;2023-01-25T06:33:29;103412.56;;;10.67;58.80
48846;BME280;34665;51.886;5.436;2023-01-25T06:35:59;103411.53;;;10.89;58.09
48846;BME280;34665;51.886;5.436;2023-01-25T06:38:25;103414.72;;;10.73;57.76
48846;BME280;34665;51.886;5.436;2023-01-25T06:40:50;103405.19;;;10.38;58.22
48846;BME280;34665;51.886;5.436;2023-01-25T06:43:16;103404.44;;;10.14;59.68
48846;BME280;34665;51.886;5.436;2023-01-25T06:45:42;103407.50;;;10.42;59.17
48846;BME280;34665;51.886;5.436;2023-01-25T06:48:07;103408.31;;;10.22;59.56
48846;BME280;34665;51.886;5.436;2023-01-25T06:50:33;103410.19;;;10.31;59.16
48846;BME280;34665;51.886;5.436;2023-01-25T06:52:58;103408.22;;;10.33;59.04
48846;BME280;34665;51.886;5.436;2023-01-25T06:55:24;103405.44;;;10.56;58.77
48846;BME280;34665;51.886;5.436;2023-01-25T06:57:49;103407.53;;;10.73;58.30
48846;BME280;34665;51.886;5.436;2023-01-25T07:00:15;103404.16;;;10.50;58.85
48846;BME280;34665;51.886;5.436;2023-01-25T07:02:42;103399.16;;;10.67;58.48
48846;BME280;34665;51.886;5.436;2023-01-25T07:05:08;103397.78;;;10.72;58.38
48846;BME280;34665;51.886;5.436;2023-01-25T07:07:34;103403.03;;;10.74;58.40
48846;BME280;34665;51.886;5.436;2023-01-25T07:10:00;103413.03;;;10.82;58.14
48846;BME280;34665;51.886;5.436;2023-01-25T07:12:28;103398.69;;;10.83;58.07
48846;BME280;34665;51.886;5.436;2023-01-25T07:14:54;103398.00;;;10.59;58.45
48846;BME280;34665;51.886;5.436;2023-01-25T07:17:20;103397.16;;;10.38;59.07
48846;BME280;34665;51.886;5.436;2023-01-25T07:19:46;103386.00;;;10.32;59.22
48846;BME280;34665;51.886;5.436;2023-01-25T07:22:11;103379.28;;;10.38;58.80
48846;BME280;34665;51.886;5.436;2023-01-25T07:24:36;103383.31;;;10.11;59.02
48846;BME280;34665;51.886;5.436;2023-01-25T07:27:02;103380.13;;;10.39;58.82
48846;BME280;34665;51.886;5.436;2023-01-25T07:29:27;103380.09;;;10.50;58.75
48846;BME280;34665;51.886;5.436;2023-01-25T07:31:53;103378.13;;;10.52;58.59
48846;BME280;34665;51.886;5.436;2023-01-25T07:34:19;103372.00;;;9.86;59.25
48846;BME280;34665;51.886;5.436;2023-01-25T07:36:44;103376.63;;;10.38;58.78
48846;BME280;34665;51.886;5.436;2023-01-25T07:39:11;103374.06;;;10.58;58.34
48846;BME280;34665;51.886;5.436;2023-01-25T07:41:38;103375.03;;;10.36;58.58
48846;BME280;34665;51.886;5.436;2023-01-25T07:44:03;103380.53;;;10.13;59.11
48846;BME280;34665;51.886;5.436;2023-01-25T07:46:49;103385.75;;;10.36;58.47
48846;BME280;34665;51.886;5.436;2023-01-25T07:49:15;103383.69;;;10.70;58.07
48846;BME280;34665;51.886;5.436;2023-01-25T07:51:41;103385.22;;;10.42;58.49
48846;BME280;34665;51.886;5.436;2023-01-25T07:54:06;103386.94;;;10.43;58.85
48846;BME280;34665;51.886;5.436;2023-01-25T07:56:33;103374.97;;;10.26;59.47
48846;BME280;34665;51.886;5.436;2023-01-25T07:59:00;103378.25;;;10.29;59.00
48846;BME280;34665;51.886;5.436;2023-01-25T08:01:30;103376.59;;;10.59;58.23
48846;BME280;34665;51.886;5.436;2023-01-25T08:04:00;103378.34;;;10.70;57.96
48846;BME280;34665;51.886;5.436;2023-01-25T08:06:29;103373.81;;;10.61;57.92
48846;BME280;34665;51.886;5.436;2023-01-25T08:08:58;103374.78;;;10.39;58.01
48846;BME280;34665;51.886;5.436;2023-01-25T08:11:26;103373.59;;;10.31;58.69
48846;BME280;34665;51.886;5.436;2023-01-25T08:13:52;103367.28;;;10.54;57.98
48846;BME280;34665;51.886;5.436;2023-01-25T08:16:20;103363.41;;;10.68;58.06
48846;BME280;34665;51.886;5.436;2023-01-25T08:18:50;103359.06;;;10.76;57.86
48846;BME280;34665;51.886;5.436;2023-01-25T08:21:17;103356.06;;;10.70;58.12
48846;BME280;34665;51.886;5.436;2023-01-25T08:23:43;103358.94;;;10.78;58.14
48846;BME280;34665;51.886;5.436;2023-01-25T08:26:10;103355.47;;;10.97;57.78
48846;BME280;34665;51.886;5.436;2023-01-25T08:28:37;103348.88;;;11.01;57.62
48846;BME280;34665;51.886;5.436;2023-01-25T08:31:13;103358.00;;;10.89;57.57
48846;BME280;34665;51.886;5.436;2023-01-25T08:33:40;103356.88;;;10.60;57.75
48846;BME280;34665;51.886;5.436;2023-01-25T08:36:08;103358.34;;;10.74;57.59
48846;BME280;34665;51.886;5.436;2023-01-25T08:38:34;103352.72;;;10.78;57.74
48846;BME280;34665;51.886;5.436;2023-01-25T08:41:10;103352.59;;;10.79;57.45
48846;BME280;34665;51.886;5.436;2023-01-25T08:43:36;103352.50;;;10.90;57.39
48846;BME280;34665;51.886;5.436;2023-01-25T08:46:02;103360.81;;;10.56;58.28
48846;BME280;34665;51.886;5.436;2023-01-25T08:48:28;103360.22;;;10.74;57.91
48846;BME280;34665;51.886;5.436;2023-01-25T08:50:54;103349.94;;;10.79;57.65
48846;BME280;34665;51.886;5.436;2023-01-25T08:53:19;103351.59;;;10.49;58.48
48846;BME280;34665;51.886;5.436;2023-01-25T08:55:46;103347.19;;;10.38;58.45
48846;BME280;34665;51.886;5.436;2023-01-25T08:58:12;103352.41;;;9.97;59.14
48846;BME280;34665;51.886;5.436;2023-01-25T09:00:39;103348.19;;;9.62;59.99
48846;BME280;34665;51.886;5.436;2023-01-25T09:03:05;103345.50;;;9.95;59.77
48846;BME280;34665;51.886;5.436;2023-01-25T09:05:35;103343.59;;;10.28;59.06
48846;BME280;34665;51.886;5.436;2023-01-25T09:08:02;103342.75;;;10.49;58.59
48846;BME280;34665;51.886;5.436;2023-01-25T09:10:28;103339.47;;;10.66;58.28
48846;BME280;34665;51.886;5.436;2023-01-25T09:12:54;103338.00;;;10.52;58.34
48846;BME280;34665;51.886;5.436;2023-01-25T09:15:20;103339.38;;;10.46;58.25
48846;BME280;34665;51.886;5.436;2023-01-25T09:17:49;103344.19;;;10.53;57.95
48846;BME280;34665;51.886;5.436;2023-01-25T09:20:15;103330.59;;;10.23;58.80
48846;BME280;34665;51.886;5.436;2023-01-25T09:22:41;103333.97;;;9.61;59.97
48846;BME280;34665;51.886;5.436;2023-01-25T09:25:07;103329.78;;;9.80;60.38
48846;BME280;34665;51.886;5.436;2023-01-25T09:27:33;103330.88;;;10.20;59.74
48846;BME280;34665;51.886;5.436;2023-01-25T09:29:58;103324.41;;;10.44;59.17
48846;BME280;34665;51.886;5.436;2023-01-25T09:32:24;103331.78;;;10.52;59.12
48846;BME280;34665;51.886;5.436;2023-01-25T09:34:51;103335.25;;;10.00;59.73
48846;BME280;34665;51.886;5.436;2023-01-25T09:37:16;103322.31;;;9.63;60.30
48846;BME280;34665;51.886;5.436;2023-01-25T09:39:42;103321.78;;;9.03;63.23
48846;BME280;34665;51.886;5.436;2023-01-25T09:42:27;103326.72;;;9.85;61.38
48846;BME280;34665;51.886;5.436;2023-01-25T09:47:45;103320.72;;;9.93;59.94
48846;BME280;34665;51.886;5.436;2023-01-25T09:50:17;103319.66;;;10.47;59.53
48846;BME280;34665;51.886;5.436;2023-01-25T09:55:43;103328.19;;;10.20;60.15
48846;BME280;34665;51.886;5.436;2023-01-25T09:58:17;103324.19;;;10.57;59.24
48846;BME280;34665;51.886;5.436;2023-01-25T10:00:44;103311.44;;;10.70;58.98
48846;BME280;34665;51.886;5.436;2023-01-25T10:03:26;103310.78;;;10.78;58.44
48846;BME280;34665;51.886;5.436;2023-01-25T10:05:58;103316.00;;;10.49;58.99
48846;BME280;34665;51.886;5.436;2023-01-25T10:08:37;103306.72;;;10.53;58.88
48846;BME280;34665;51.886;5.436;2023-01-25T10:11:15;103308.38;;;9.80;60.28
48846;BME280;34665;51.886;5.436;2023-01-25T10:13:44;103305.72;;;9.80;60.62
48846;BME280;34665;51.886;5.436;2023-01-25T10:16:23;103301.41;;;10.10;60.21
48846;BME280;34665;51.886;5.436;2023-01-25T10:18:54;103302.50;;;10.50;59.34
48846;BME280;34665;51.886;5.436;2023-01-25T10:21:33;103303.47;;;10.28;59.36
48846;BME280;34665;51.886;5.436;2023-01-25T10:29:56;103283.63;;;10.52;59.27
48846;BME280;34665;51.886;5.436;2023-01-25T10:32:29;103282.34;;;10.87;57.99
48846;BME280;34665;51.886;5.436;2023-01-25T10:35:15;103278.94;;;10.95;57.81
48846;BME280;34665;51.886;5.436;2023-01-25T10:37:41;103270.00;;;10.65;58.15
48846;BME280;34665;51.886;5.436;2023-01-25T10:40:23;103256.97;;;10.40;58.86
48846;BME280;34665;51.886;5.436;2023-01-25T10:43:10;103258.84;;;10.50;58.50
48846;BME280;34665;51.886;5.436;2023-01-25T10:45:37;103251.34;;;11.04;57.67
48846;BME280;34665;51.886;5.436;2023-01-25T10:48:06;103249.28;;;10.26;59.04
48846;BME280;34665;51.886;5.436;2023-01-25T10:53:24;103237.59;;;10.27;60.02
48846;BME280;34665;51.886;5.436;2023-01-25T10:55:55;103231.84;;;10.72;58.78
48846;BME280;34665;51.886;5.436;2023-01-25T10:58:33;103220.91;;;11.25;57.51
48846;BME280;34665;51.886;5.436;2023-01-25T11:00:59;103215.53;;;10.85;58.00
48846;BME280;34665;51.886;5.436;2023-01-25T11:03:37;103216.38;;;10.76;58.12
48846;BME280;34665;51.886;5.436;2023-01-25T11:06:04;103213.75;;;10.14;59.57
48846;BME280;34665;51.886;5.436;2023-01-25T11:10:56;103201.56;;;10.31;59.64
48846;BME280;34665;51.886;5.436;2023-01-25T11:13:31;103202.53;;;9.89;60.21
48846;BME280;34665;51.886;5.436;2023-01-25T11:18:30;103190.88;;;10.82;58.69
48846;BME280;34665;51.886;5.436;2023-01-25T11:21:09;103179.47;;;10.89;58.31
48846;BME280;34665;51.886;5.436;2023-01-25T11:23:35;103177.38;;;11.03;57.95
48846;BME280;34665;51.886;5.436;2023-01-25T11:28:40;103156.34;;;10.69;58.69
48846;BME280;34665;51.886;5.436;2023-01-25T11:31:13;103162.84;;;10.86;58.68
48846;BME280;34665;51.886;5.436;2023-01-25T11:33:40;103156.31;;;9.46;61.42
48846;BME280;34665;51.886;5.436;2023-01-25T11:38:31;103147.25;;;9.37;63.79
48846;BME280;34665;51.886;5.436;2023-01-25T11:43:51;103128.06;;;10.25;61.14
48846;BME280;34665;51.886;5.436;2023-01-25T11:52:47;103106.25;;;9.48;63.16
48846;BME280;34665;51.886;5.436;2023-01-25T11:55:26;103101.53;;;9.61;63.16
48846;BME280;34665;51.886;5.436;2023-01-25T11:58:31;103095.38;;;10.02;62.05
48846;BME280;34665;51.886;5.436;2023-01-25T12:01:12;103086.72;;;10.39;61.08
48846;BME280;34665;51.886;5.436;2023-01-25T12:30:48;103012.25;;;9.02;63.89
48846;BME280;34665;51.886;5.436;2023-01-25T12:36:29;103008.22;;;9.39;64.02
48846;BME280;34665;51.886;5.436;2023-01-25T12:39:24;103001.38;;;9.46;62.55
48846;BME280;34665;51.886;5.436;2023-01-25T12:42:00;102999.78;;;9.84;62.14
48846;BME280;34665;51.886;5.436;2023-01-25T12:44:43;102997.06;;;9.65;61.44
48846;BME280;34665;51.886;5.436;2023-01-25T12:47:20;102988.59;;;9.50;62.79
48846;BME280;34665;51.886;5.436;2023-01-25T12:50:15;102983.84;;;9.53;62.66
48846;BME280;34665;51.886;5.436;2023-01-25T12:52:50;102979.31;;;9.54;62.62
48846;BME280;34665;51.886;5.436;2023-01-25T12:55:18;102972.78;;;9.78;62.38
48846;BME280;34665;51.886;5.436;2023-01-25T12:58:04;102967.88;;;10.02;61.56
48846;BME280;34665;51.886;5.436;2023-01-25T13:04:14;102955.69;;;9.39;64.21
48846;BME280;34665;51.886;5.436;2023-01-25T13:06:55;102951.97;;;9.81;63.07
48846;BME280;34665;51.886;5.436;2023-01-25T13:09:29;102952.13;;;10.29;61.64
48846;BME280;34665;51.886;5.436;2023-01-25T13:11:57;102947.28;;;9.13;64.51
48846;BME280;34665;51.886;5.436;2023-01-25T13:14:29;102945.31;;;9.46;63.10
48846;BME280;34665;51.886;5.436;2023-01-25T13:17:27;102932.13;;;9.74;62.12
48846;BME280;34665;51.886;5.436;2023-01-25T13:19:55;102922.31;;;10.04;61.40
48846;BME280;34665;51.886;5.436;2023-01-25T13:27:40;102902.00;;;9.52;64.10
48846;BME280;34665;51.886;5.436;2023-01-25T13:30:26;102904.41;;;10.34;62.14
48846;BME280;34665;51.886;5.436;2023-01-25T13:32:55;102904.59;;;10.42;61.25
48846;BME280;34665;51.886;5.436;2023-01-25T13:35:34;102911.59;;;10.63;60.22
48846;BME280;34665;51.886;5.436;2023-01-25T13:38:03;102904.28;;;10.26;61.98
48846;BME280;34665;51.886;5.436;2023-01-25T13:40:32;102920.03;;;10.19;62.16
48846;BME280;34665;51.886;5.436;2023-01-25T13:45:34;102907.38;;;9.62;63.40
48846;BME280;34665;51.886;5.436;2023-01-25T13:48:17;102910.19;;;9.80;62.75
48846;BME280;34665;51.886;5.436;2023-01-25T13:51:05;102905.94;;;9.68;63.11
48846;BME280;34665;51.886;5.436;2023-01-25T13:53:33;102903.50;;;8.94;64.66
48846;BME280;34665;51.886;5.436;2023-01-25T13:56:01;102911.66;;;8.93;64.59
48846;BME280;34665;51.886;5.436;2023-01-25T13:58:34;102913.94;;;9.07;65.75
48846;BME280;34665;51.886;5.436;2023-01-25T14:03:42;102902.81;;;9.43;63.33
48846;BME280;34665;51.886;5.436;2023-01-25T14:08:47;102891.69;;;8.87;65.65
48846;BME280;34665;51.886;5.436;2023-01-25T14:11:26;102893.59;;;9.16;65.19
48846;BME280;34665;51.886;5.436;2023-01-25T14:14:13;102888.22;;;9.67;64.25
48846;BME280;34665;51.886;5.436;2023-01-25T14:16:40;102887.41;;;9.76;63.20
48846;BME280;34665;51.886;5.436;2023-01-25T14:19:23;102882.78;;;10.08;62.38
48846;BME280;34665;51.886;5.436;2023-01-25T14:22:09;102882.50;;;10.21;62.26
48846;BME280;34665;51.886;5.436;2023-01-25T14:24:35;102884.28;;;10.40;61.68
48846;BME280;34665;51.886;5.436;2023-01-25T14:27:03;102881.78;;;10.09;61.60
48846;BME280;34665;51.886;5.436;2023-01-25T14:29:28;102880.34;;;10.14;62.13
48846;BME280;34665;51.886;5.436;2023-01-25T14:31:54;102866.97;;;10.44;61.35
48846;BME280;34665;51.886;5.436;2023-01-25T14:34:19;102860.47;;;9.18;65.28
48846;BME280;34665;51.886;5.436;2023-01-25T14:36:46;102866.03;;;8.74;66.21